Terminal Aerodrome Forecast
Issued by NWS Austin/San Antonio, TX

Home | Current Version | Previous Version | Text Only | Print | Product List | Glossary On
Versions: 1 2 3 4 5 6 7 8 9 10 11 12 13 14 15 16 17 18 19 20 21 22
000
FTUS44 KEWX 020748 AAA
TAFAUS
TAF AMD
KAUS 020748Z 0208/0312 17006KT P6SM BKN005
     FM021300 17006KT 6SM BR OVC015
     FM021600 18011KT P6SM SCT035 SCT250
     FM021900 17012G19KT P6SM SCT050
     FM030500 16009KT P6SM BKN250=

USA.gov is the U.S. government's official web portal to all federal, state and local government web resources and services.